Time;durP1;ratioP1;P1;durP2;ratioP2;P2;SDS_P1;SDS_P2;PMS_P1;PMS_P2;Temp;Humidity;BMP_temperature;BMP_pressure;BME280_temperature;BME280_humidity;BME280_pressure;Samples;Min_cycle;Max_cycle;Signal;HPM_P1;HPM_P2
2022/12/09 00:01:19;;;;;;;14.40;7.68;;;14.50;99.90;;;;;;5033617;28;20200;-68
2022/12/09 00:04:23;;;;;;;19.30;7.57;;;14.60;99.90;;;;;;5033916;28;20038;-67
2022/12/09 00:07:27;;;;;;;12.93;8.10;;;14.60;99.90;;;;;;5033713;28;20049;-67
2022/12/09 00:10:31;;;;;;;14.13;6.63;;;14.70;99.90;;;;;;5033549;28;20044;-67
2022/12/09 00:13:35;;;;;;;15.23;6.90;;;14.70;99.90;;;;;;5033618;28;20048;-68
2022/12/09 00:16:39;;;;;;;20.52;7.53;;;14.70;99.90;;;;;;5033874;28;20492;-67
2022/12/09 00:19:43;;;;;;;21.92;6.90;;;14.80;99.90;;;;;;5044456;28;20515;-67
2022/12/09 00:22:47;;;;;;;19.40;6.63;;;14.80;99.90;;;;;;5033432;28;20044;-68
2022/12/09 00:25:51;;;;;;;22.67;6.35;;;14.90;99.90;;;;;;5033515;28;20043;-67
2022/12/09 00:28:55;;;;;;;19.17;7.82;;;14.90;99.90;;;;;;5033407;28;20044;-67
2022/12/09 00:31:59;;;;;;;13.27;5.72;;;14.90;99.90;;;;;;5043929;28;20040;-66
2022/12/09 00:35:03;;;;;;;16.52;6.30;;;14.90;99.90;;;;;;5033203;28;20573;-66
2022/12/09 00:38:07;;;;;;;15.05;6.05;;;15.00;99.90;;;;;;5033368;28;20045;-66
2022/12/09 00:41:12;;;;;;;19.40;6.20;;;15.00;99.90;;;;;;5033466;28;20397;-68
2022/12/09 00:44:16;;;;;;;19.02;6.75;;;15.00;99.90;;;;;;5033385;28;20048;-66
2022/12/09 00:47:20;;;;;;;26.33;5.70;;;15.00;99.90;;;;;;5033029;28;20072;-67
2022/12/09 00:50:24;;;;;;;24.33;6.95;;;14.90;99.90;;;;;;5033012;28;20546;-67
2022/12/09 00:53:29;;;;;;;19.95;4.88;;;15.00;99.90;;;;;;5033158;28;20207;-67
2022/12/09 00:56:34;;;;;;;34.90;5.10;;;15.00;99.90;;;;;;5032843;28;20066;-67
2022/12/09 00:59:37;;;;;;;31.75;5.00;;;15.10;99.90;;;;;;5032797;28;20056;-68
2022/12/09 01:02:42;;;;;;;35.13;6.05;;;15.10;99.90;;;;;;5032785;28;20052;-67
2022/12/09 01:05:47;;;;;;;34.35;5.18;;;15.20;99.90;;;;;;5032931;28;20052;-68
2022/12/09 01:08:51;;;;;;;30.48;5.15;;;15.30;99.90;;;;;;5032598;28;20044;-68
2022/12/09 01:11:55;;;;;;;33.00;5.53;;;15.30;99.90;;;;;;5043304;28;20052;-66
2022/12/09 01:15:00;;;;;;;29.05;4.93;;;15.30;99.90;;;;;;5031532;28;20056;-68
2022/12/09 01:18:04;;;;;;;34.75;5.47;;;15.30;99.90;;;;;;5032743;28;20723;-68
2022/12/09 01:21:09;;;;;;;25.90;4.78;;;15.30;99.90;;;;;;5032472;28;20052;-66
2022/12/09 01:24:13;;;;;;;18.02;4.65;;;15.40;99.90;;;;;;5032345;28;20061;-67
2022/12/09 01:27:18;;;;;;;23.58;4.97;;;15.40;99.90;;;;;;5031096;28;20048;-68
2022/12/09 01:30:22;;;;;;;29.00;5.57;;;15.40;99.90;;;;;;5032044;28;20040;-68
2022/12/09 01:33:27;;;;;;;26.88;5.22;;;15.40;99.90;;;;;;5032341;28;20503;-67
2022/12/09 01:36:31;;;;;;;35.88;5.82;;;15.40;99.90;;;;;;5032166;28;20049;-66
2022/12/09 01:39:36;;;;;;;41.17;4.70;;;15.50;99.90;;;;;;5032092;28;20044;-66
2022/12/09 01:42:40;;;;;;;20.80;3.90;;;15.50;99.90;;;;;;5031175;28;20040;-66
2022/12/09 01:45:44;;;;;;;23.08;4.65;;;15.50;99.90;;;;;;5032120;28;20056;-66
2022/12/09 01:48:48;;;;;;;23.00;4.47;;;15.50;99.90;;;;;;5031943;28;20048;-68
2022/12/09 01:52:19;;;;;;;25.42;5.75;;;15.60;99.90;;;;;;5031745;28;20032;-67
2022/12/09 01:55:25;;;;;;;30.02;5.55;;;15.60;99.90;;;;;;5031589;28;20068;-68
2022/12/09 01:58:29;;;;;;;33.13;4.40;;;15.60;99.90;;;;;;5031692;28;20044;-68
2022/12/09 02:01:33;;;;;;;41.17;5.38;;;15.60;99.90;;;;;;5030969;28;20128;-67
2022/12/09 02:04:40;;;;;;;27.80;5.05;;;15.60;99.90;;;;;;5030717;28;20044;-66
2022/12/09 02:07:44;;;;;;;29.33;5.30;;;15.60;99.90;;;;;;5030661;28;20052;-67
2022/12/09 02:11:00;;;;;;;21.67;4.13;;;15.60;99.90;;;;;;5031323;28;20040;-66
2022/12/09 02:14:20;;;;;;;20.80;4.07;;;15.60;99.90;;;;;;5042185;28;20048;-66
2022/12/09 02:17:38;;;;;;;26.75;4.47;;;15.60;99.90;;;;;;5030667;28;20068;-66
2022/12/09 02:20:55;;;;;;;31.90;4.82;;;15.60;99.90;;;;;;5030642;28;20057;-67
2022/12/09 02:24:07;;;;;;;19.83;4.85;;;15.60;99.90;;;;;;5042174;28;20211;-68
2022/12/09 02:27:20;;;;;;;30.73;4.55;;;15.60;99.90;;;;;;5041714;28;20511;-67
2022/12/09 02:30:55;;;;;;;24.13;5.18;;;15.60;99.90;;;;;;5031312;28;20045;-67
2022/12/09 02:34:29;;;;;;;45.03;5.50;;;15.60;99.90;;;;;;5030412;28;20111;-68
2022/12/09 02:38:19;;;;;;;23.25;5.35;;;15.60;99.90;;;;;;5029783;28;20401;-68
2022/12/09 02:41:26;;;;;;;33.55;4.90;;;15.70;99.90;;;;;;5020939;28;20045;-68
2022/12/09 02:44:31;;;;;;;23.58;4.65;;;15.70;99.90;;;;;;5030203;28;20044;-68
2022/12/09 02:47:40;;;;;;;31.85;4.63;;;15.70;99.90;;;;;;5030152;28;20060;-67
2022/12/09 02:50:50;;;;;;;22.65;4.50;;;15.70;99.90;;;;;;5030232;28;20041;-68
2022/12/09 02:54:02;;;;;;;38.33;4.65;;;15.70;99.90;;;;;;5030740;28;20223;-68
2022/12/09 02:57:21;;;;;;;24.63;4.30;;;15.70;99.90;;;;;;5030379;28;20078;-68
2022/12/09 03:00:26;;;;;;;13.95;3.45;;;15.70;99.90;;;;;;5029977;28;20056;-68
2022/12/09 03:03:32;;;;;;;24.45;3.97;;;15.80;99.90;;;;;;5031523;28;20056;-68
2022/12/09 03:06:49;;;;;;;20.63;4.15;;;15.80;99.90;;;;;;5031072;28;20045;-68
2022/12/09 03:10:01;;;;;;;22.95;3.70;;;15.80;99.90;;;;;;5030917;28;20041;-67
2022/12/09 03:13:20;;;;;;;34.78;4.57;;;15.80;99.90;;;;;;5030604;28;20036;-68
2022/12/09 03:16:42;;;;;;;38.95;4.70;;;15.80;99.90;;;;;;5030561;28;20090;-68
2022/12/09 03:19:52;;;;;;;42.03;4.78;;;15.80;99.90;;;;;;5030477;28;20044;-68
2022/12/09 03:22:59;;;;;;;18.73;4.13;;;15.80;99.90;;;;;;5030957;28;20048;-67
2022/12/09 03:26:05;;;;;;;27.45;4.43;;;15.80;99.90;;;;;;5030752;28;20373;-67
2022/12/09 03:29:17;;;;;;;34.08;5.63;;;15.80;99.90;;;;;;5030492;28;20056;-67
2022/12/09 03:32:25;;;;;;;26.08;3.95;;;15.80;99.90;;;;;;5030862;28;20044;-67
2022/12/09 03:35:31;;;;;;;31.10;3.92;;;15.80;99.90;;;;;;5030486;28;20061;-67
2022/12/09 03:38:38;;;;;;;41.80;4.78;;;15.80;99.90;;;;;;5030333;28;20507;-67
2022/12/09 03:41:52;;;;;;;45.03;4.70;;;15.80;99.90;;;;;;5029878;28;20044;-67
2022/12/09 03:45:05;;;;;;;28.15;4.30;;;15.80;99.90;;;;;;5030329;28;20053;-68
2022/12/09 03:48:10;;;;;;;26.58;4.97;;;15.80;99.90;;;;;;5030353;28;20048;-67
2022/12/09 03:51:18;;;;;;;35.92;5.47;;;15.80;99.90;;;;;;5033504;28;20056;-67
2022/12/09 03:54:46;;;;;;;24.88;4.00;;;15.90;99.90;;;;;;5033845;28;20044;-67
2022/12/09 03:57:55;;;;;;;38.65;5.15;;;15.80;99.90;;;;;;5034010;28;20041;-67
2022/12/09 04:01:01;;;;;;;21.02;4.43;;;15.80;99.90;;;;;;5033820;28;20040;-67
2022/12/09 04:04:05;;;;;;;19.55;3.75;;;15.80;99.90;;;;;;5033843;28;20389;-67
2022/12/09 04:07:09;;;;;;;31.67;5.05;;;15.80;99.90;;;;;;5033671;28;20056;-67
2022/12/09 04:10:18;;;;;;;21.75;3.90;;;15.80;99.90;;;;;;5033939;28;20045;-67
2022/12/09 04:13:24;;;;;;;28.55;4.50;;;15.80;99.90;;;;;;5033680;28;20052;-67
2022/12/09 04:16:28;;;;;;;31.00;4.82;;;15.70;99.90;;;;;;5033834;28;20060;-67
2022/12/09 04:19:32;;;;;;;25.08;4.68;;;15.70;99.90;;;;;;5033604;28;20527;-67
2022/12/09 04:22:37;;;;;;;39.67;4.75;;;15.60;99.90;;;;;;5033525;28;20240;-67
2022/12/09 04:25:41;;;;;;;40.95;5.75;;;15.60;99.90;;;;;;5033534;28;20052;-67
2022/12/09 04:28:45;;;;;;;31.17;5.15;;;15.60;99.90;;;;;;5033377;28;20204;-67
2022/12/09 04:31:49;;;;;;;29.20;5.35;;;15.60;99.90;;;;;;5033349;28;20048;-67
2022/12/09 04:34:52;;;;;;;33.80;5.22;;;15.50;99.90;;;;;;5033508;28;20048;-67
2022/12/09 04:37:56;;;;;;;33.35;4.78;;;15.50;99.90;;;;;;5033485;28;20049;-67
2022/12/09 04:41:01;;;;;;;34.97;5.00;;;15.50;99.90;;;;;;5033398;28;20060;-67
2022/12/09 04:44:05;;;;;;;31.88;4.90;;;15.40;99.90;;;;;;5033088;28;20060;-67
2022/12/09 04:47:09;;;;;;;30.15;5.18;;;15.40;99.90;;;;;;5033046;28;20048;-67
2022/12/09 04:50:13;;;;;;;20.05;4.05;;;15.40;99.90;;;;;;5032843;28;20048;-67
2022/12/09 04:53:17;;;;;;;23.48;4.82;;;15.40;99.90;;;;;;5033299;28;20036;-67
2022/12/09 04:56:21;;;;;;;19.55;3.70;;;15.40;99.90;;;;;;5032739;28;20519;-67
2022/12/09 04:59:25;;;;;;;19.80;4.25;;;15.40;99.90;;;;;;5032613;28;20384;-67
2022/12/09 05:02:29;;;;;;;20.15;4.30;;;15.40;99.90;;;;;;5032873;28;20113;-67
2022/12/09 05:05:33;;;;;;;27.83;3.80;;;15.40;99.90;;;;;;5032557;28;20045;-67
2022/12/09 05:08:38;;;;;;;26.05;5.05;;;15.40;99.90;;;;;;5032532;28;20060;-67
2022/12/09 05:11:41;;;;;;;23.52;5.13;;;15.40;99.90;;;;;;5032639;28;20424;-67
2022/12/09 05:14:45;;;;;;;30.58;5.63;;;15.20;99.90;;;;;;5032537;28;20052;-67
2022/12/09 05:17:49;;;;;;;36.33;5.82;;;15.10;99.90;;;;;;5032337;28;20068;-67
2022/12/09 05:20:54;;;;;;;22.70;5.60;;;15.00;99.90;;;;;;5032415;28;20037;-67
2022/12/09 05:24:01;;;;;;;33.83;5.13;;;15.00;99.90;;;;;;5032394;28;20424;-67
2022/12/09 05:27:05;;;;;;;32.85;5.88;;;14.90;99.90;;;;;;5032294;28;20052;-67
2022/12/09 05:30:09;;;;;;;34.95;6.80;;;14.90;99.90;;;;;;5032002;28;20404;-67
2022/12/09 05:33:13;;;;;;;29.08;5.20;;;14.90;99.90;;;;;;5031875;28;20495;-67
2022/12/09 05:36:28;;;;;;;26.67;5.10;;;14.90;99.90;;;;;;5031948;28;20048;-67
2022/12/09 05:39:32;;;;;;;22.27;5.82;;;14.80;99.90;;;;;;5031822;28;20060;-67
2022/12/09 05:42:36;;;;;;;28.88;5.50;;;14.90;99.90;;;;;;5031964;28;20052;-67
2022/12/09 05:45:41;;;;;;;28.20;5.43;;;14.80;99.90;;;;;;5032139;28;20044;-67
2022/12/09 05:48:45;;;;;;;25.52;5.03;;;14.80;99.90;;;;;;5032194;28;20499;-67
2022/12/09 05:51:49;;;;;;;36.70;6.78;;;14.80;99.90;;;;;;5031900;28;20064;-67
2022/12/09 05:54:53;;;;;;;25.23;6.40;;;14.80;99.90;;;;;;5031506;28;20052;-67
2022/12/09 05:57:57;;;;;;;24.98;5.88;;;14.70;99.90;;;;;;5031718;28;20048;-67
2022/12/09 06:01:08;;;;;;;22.27;5.88;;;14.70;99.90;;;;;;5031413;28;20053;-67
2022/12/09 06:04:12;;;;;;;24.55;5.28;;;14.70;99.90;;;;;;5031577;28;20048;-67
2022/12/09 06:07:16;;;;;;;32.13;6.13;;;14.70;99.90;;;;;;5031523;28;20048;-66
2022/12/09 06:10:20;;;;;;;25.88;6.03;;;14.70;99.90;;;;;;5031431;28;20544;-67
2022/12/09 06:13:24;;;;;;;27.45;5.00;;;14.60;99.90;;;;;;5030903;28;20044;-66
2022/12/09 06:16:28;;;;;;;18.17;4.57;;;14.70;99.90;;;;;;5031557;28;20052;-67
2022/12/09 06:19:32;;;;;;;26.63;5.80;;;14.70;99.90;;;;;;5031524;28;20087;-67
2022/12/09 06:22:36;;;;;;;24.75;5.00;;;14.70;99.90;;;;;;5031603;28;20049;-66
2022/12/09 06:25:44;;;;;;;26.67;6.03;;;14.80;99.90;;;;;;5031237;28;20405;-67
2022/12/09 06:28:49;;;;;;;23.85;5.18;;;14.80;99.90;;;;;;5031275;28;20044;-67
2022/12/09 06:31:53;;;;;;;22.20;4.50;;;14.60;99.90;;;;;;5031444;28;20041;-66
2022/12/09 06:34:57;;;;;;;21.75;5.47;;;14.90;99.90;;;;;;5031093;28;20052;-66
2022/12/09 06:38:01;;;;;;;28.98;5.00;;;15.00;99.90;;;;;;5031200;28;20151;-66
2022/12/09 06:41:09;;;;;;;26.35;4.18;;;14.90;99.90;;;;;;5031468;28;20095;-67
2022/12/09 06:44:14;;;;;;;24.25;4.65;;;15.00;99.90;;;;;;5030661;28;20346;-66
2022/12/09 06:47:18;;;;;;;13.00;3.60;;;15.10;99.90;;;;;;5031318;28;20040;-66
2022/12/09 06:50:22;;;;;;;28.45;4.72;;;15.20;99.90;;;;;;5031170;28;20508;-67
2022/12/09 06:53:26;;;;;;;25.92;4.70;;;15.20;99.90;;;;;;5030771;28;20056;-67
2022/12/09 06:56:31;;;;;;;18.20;4.05;;;15.30;99.90;;;;;;5031133;28;20056;-68
2022/12/09 06:59:35;;;;;;;21.42;4.07;;;15.30;99.90;;;;;;5030946;28;20040;-66
2022/12/09 07:02:39;;;;;;;28.27;5.47;;;15.30;99.90;;;;;;5030726;28;20072;-68
2022/12/09 07:05:42;;;;;;;24.33;4.90;;;15.40;99.90;;;;;;5030684;28;20041;-68
2022/12/09 07:08:46;;;;;;;15.52;4.85;;;15.40;99.90;;;;;;5030998;28;20068;-67
2022/12/09 07:11:50;;;;;;;28.85;4.88;;;15.50;99.90;;;;;;5030924;28;20041;-66
2022/12/09 07:14:54;;;;;;;26.52;5.68;;;15.60;99.90;;;;;;5030800;28;20048;-69
2022/12/09 07:17:58;;;;;;;19.60;4.60;;;15.60;99.90;;;;;;5030718;28;20045;-68
2022/12/09 07:21:22;;;;;;;32.58;5.10;;;15.70;99.90;;;;;;5041311;28;20048;-68
2022/12/09 07:24:26;;;;;;;24.35;5.15;;;15.70;99.90;;;;;;5031082;28;20503;-67
2022/12/09 07:27:30;;;;;;;17.70;4.60;;;15.80;99.90;;;;;;5034550;28;20045;-68
2022/12/09 07:30:36;;;;;;;18.80;5.57;;;15.80;99.90;;;;;;5034288;28;20072;-68
2022/12/09 07:33:40;;;;;;;26.77;5.25;;;16.00;99.90;;;;;;5034916;28;20228;-67
2022/12/09 07:36:44;;;;;;;20.65;5.25;;;15.90;99.90;;;;;;5034854;28;20061;-68
2022/12/09 07:39:48;;;;;;;26.38;5.32;;;15.90;99.90;;;;;;5034416;28;20052;-68
2022/12/09 07:42:52;;;;;;;20.88;6.80;;;16.00;99.90;;;;;;5034769;28;20052;-67
2022/12/09 07:45:57;;;;;;;21.10;4.40;;;16.00;99.90;;;;;;5034852;28;20035;-65
2022/12/09 07:49:03;;;;;;;24.17;4.72;;;16.00;99.90;;;;;;5034199;28;20041;-67
2022/12/09 07:52:07;;;;;;;20.30;4.80;;;16.00;99.90;;;;;;5034183;28;20045;-65
2022/12/09 07:55:11;;;;;;;20.63;5.35;;;16.10;99.90;;;;;;5033717;28;20051;-68
2022/12/09 07:58:14;;;;;;;20.73;5.05;;;16.10;99.90;;;;;;5034055;28;20216;-66
2022/12/09 08:01:21;;;;;;;21.00;4.97;;;16.20;99.90;;;;;;5034029;28;20295;-65
2022/12/09 08:04:26;;;;;;;19.50;4.78;;;16.20;99.90;;;;;;5034234;28;20052;-66
2022/12/09 08:07:30;;;;;;;27.85;5.00;;;16.30;99.90;;;;;;5033992;28;20044;-67
2022/12/09 08:10:34;;;;;;;23.92;4.32;;;16.40;99.90;;;;;;5033403;28;20099;-65
2022/12/09 08:13:37;;;;;;;14.77;3.78;;;16.50;99.90;;;;;;5033706;28;20028;-67
2022/12/09 08:16:42;;;;;;;16.52;3.90;;;16.60;99.90;;;;;;5033041;28;20405;-66
2022/12/09 08:19:47;;;;;;;25.70;4.63;;;16.70;99.90;;;;;;5031703;28;20048;-67
2022/12/09 08:22:51;;;;;;;18.55;4.65;;;16.80;99.90;;;;;;5042242;28;20041;-66
2022/12/09 08:25:55;;;;;;;25.02;4.93;;;16.90;99.90;;;;;;5031889;28;20048;-67
2022/12/09 08:28:59;;;;;;;18.83;4.88;;;17.00;99.90;;;;;;5031513;28;20620;-66
2022/12/09 08:32:04;;;;;;;28.15;5.22;;;17.10;99.90;;;;;;5031985;28;20503;-65
2022/12/09 08:35:13;;;;;;;21.15;4.47;;;17.20;99.90;;;;;;5032792;28;20052;-65
2022/12/09 08:38:18;;;;;;;22.38;4.38;;;17.20;99.90;;;;;;5033356;28;20040;-64
2022/12/09 08:41:33;;;;;;;26.55;4.07;;;17.20;99.60;;;;;;5033011;28;20044;-63
2022/12/09 08:44:38;;;;;;;19.42;4.05;;;17.20;99.50;;;;;;5033201;28;20057;-65
2022/12/09 08:47:42;;;;;;;27.30;4.43;;;17.20;99.70;;;;;;5032954;28;20052;-65
2022/12/09 08:50:47;;;;;;;27.60;4.63;;;17.20;99.90;;;;;;5033116;28;20504;-66
2022/12/09 08:53:51;;;;;;;16.90;4.60;;;17.20;99.90;;;;;;5032352;28;20535;-67
2022/12/09 08:56:55;;;;;;;18.65;4.30;;;17.20;99.90;;;;;;5032955;28;20128;-66
2022/12/09 08:59:59;;;;;;;34.25;4.85;;;17.20;99.90;;;;;;5032837;28;20600;-66
2022/12/09 09:03:03;;;;;;;24.17;5.00;;;17.20;99.90;;;;;;5032739;28;20235;-65
2022/12/09 09:06:07;;;;;;;22.85;4.00;;;17.20;99.90;;;;;;5032962;28;20377;-67
2022/12/09 09:09:12;;;;;;;27.60;4.88;;;17.30;99.90;;;;;;5031712;28;20060;-67
2022/12/09 09:12:16;;;;;;;26.95;4.63;;;17.60;99.90;;;;;;5032763;28;20045;-66
2022/12/09 09:15:21;;;;;;;28.85;5.07;;;17.60;99.60;;;;;;5032297;28;20068;-66
2022/12/09 09:18:25;;;;;;;24.50;5.28;;;17.70;99.70;;;;;;5032163;28;20258;-66
2022/12/09 09:21:29;;;;;;;22.25;4.47;;;17.90;99.30;;;;;;5032184;28;20036;-65
2022/12/09 09:24:33;;;;;;;20.75;5.05;;;18.20;99.10;;;;;;5031873;28;20040;-65
2022/12/09 09:27:37;;;;;;;16.27;3.80;;;18.40;98.60;;;;;;5032156;28;20036;-65
2022/12/09 09:30:41;;;;;;;29.13;4.18;;;18.70;97.80;;;;;;5032145;28;20061;-67
2022/12/09 09:33:45;;;;;;;15.52;3.65;;;18.90;97.50;;;;;;5032142;28;20108;-67
2022/12/09 09:36:50;;;;;;;24.92;5.68;;;19.00;97.00;;;;;;5032395;28;20468;-67
2022/12/09 09:39:53;;;;;;;15.13;3.17;;;19.30;97.00;;;;;;5032222;28;20397;-67
2022/12/09 09:42:59;;;;;;;23.63;3.58;;;19.50;94.60;;;;;;5031755;28;20044;-66
2022/12/09 09:46:04;;;;;;;19.23;3.67;;;19.40;95.10;;;;;;5031964;28;20508;-65
2022/12/09 09:49:18;;;;;;;22.55;3.90;;;19.20;95.80;;;;;;5031342;28;20060;-66
2022/12/09 09:52:25;;;;;;;19.90;3.85;;;19.10;96.10;;;;;;5032093;28;20372;-67
2022/12/09 09:55:40;;;;;;;20.52;3.95;;;19.20;96.60;;;;;;5011858;28;20049;-67
2022/12/09 09:58:55;;;;;;;20.40;3.75;;;19.30;96.40;;;;;;5011975;28;20045;-67
2022/12/09 10:02:07;;;;;;;19.58;3.72;;;19.60;95.40;;;;;;5011617;28;20072;-67
2022/12/09 10:05:44;;;;;;;24.52;5.10;;;19.80;94.90;;;;;;5011792;28;20041;-66
2022/12/09 10:09:09;;;;;;;24.52;4.18;;;19.80;94.50;;;;;;5011276;28;20044;-66
2022/12/09 10:12:31;;;;;;;22.98;3.90;;;19.70;94.30;;;;;;5012096;28;20053;-66
2022/12/09 10:16:03;;;;;;;15.00;3.65;;;19.50;94.80;;;;;;5011573;28;20072;-66
2022/12/09 10:19:34;;;;;;;16.73;3.75;;;19.30;95.00;;;;;;5011630;28;20041;-66
2022/12/09 10:23:04;;;;;;;27.60;4.35;;;19.20;95.50;;;;;;5011329;28;20045;-66
2022/12/09 10:26:30;;;;;;;30.08;4.47;;;19.00;95.70;;;;;;5011876;28;20396;-65
2022/12/09 10:29:44;;;;;;;20.70;3.65;;;19.00;95.50;;;;;;5011403;28;20053;-66
2022/12/09 10:32:48;;;;;;;22.83;4.15;;;19.20;95.30;;;;;;5011680;28;20041;-67
2022/12/09 10:35:52;;;;;;;24.35;4.25;;;19.20;95.40;;;;;;5011247;28;20061;-68
2022/12/09 10:38:56;;;;;;;28.45;4.30;;;19.10;95.00;;;;;;5010971;28;20040;-68
2022/12/09 10:45:24;;;;;;;23.70;3.80;;;19.10;95.50;;;;;;5011411;28;20504;-69
2022/12/09 10:48:42;;;;;;;24.73;4.60;;;19.10;95.50;;;;;;5011162;28;20069;-67
2022/12/09 10:51:48;;;;;;;28.58;4.53;;;19.00;95.90;;;;;;5011542;28;20409;-65
2022/12/09 10:54:52;;;;;;;22.00;3.95;;;18.90;95.60;;;;;;5026573;28;20044;-64
2022/12/09 10:58:25;;;;;;;20.60;3.80;;;18.90;95.50;;;;;;5030663;28;20049;-66
2022/12/09 11:01:29;;;;;;;29.50;4.50;;;18.90;95.60;;;;;;5036356;28;20204;-66
2022/12/09 11:04:37;;;;;;;27.08;4.03;;;18.90;95.60;;;;;;5048139;28;20400;-69
2022/12/09 11:07:46;;;;;;;19.40;4.30;;;18.80;95.30;;;;;;5037279;28;20488;-68
2022/12/09 11:10:50;;;;;;;20.70;3.83;;;18.70;95.30;;;;;;5037011;28;20052;-66
2022/12/09 11:13:54;;;;;;;21.40;4.57;;;18.60;95.20;;;;;;5037008;28;20112;-67
2022/12/09 11:17:14;;;;;;;28.30;4.15;;;18.60;95.70;;;;;;5037357;28;20048;-69
2022/12/09 11:20:24;;;;;;;29.30;5.25;;;18.50;96.00;;;;;;5037461;28;20037;-67
2022/12/09 11:23:28;;;;;;;22.52;4.35;;;18.40;95.60;;;;;;5037604;28;20523;-67
2022/12/09 11:26:37;;;;;;;19.17;3.85;;;18.40;95.10;;;;;;5037381;28;20037;-68
2022/12/09 11:29:41;;;;;;;28.35;4.25;;;18.40;95.00;;;;;;5036959;28;20048;-68
2022/12/09 11:32:54;;;;;;;26.25;4.07;;;18.40;95.10;;;;;;5037133;28;20061;-68
2022/12/09 11:36:18;;;;;;;26.38;4.20;;;18.50;95.00;;;;;;5036856;28;20060;-68
2022/12/09 11:39:28;;;;;;;22.13;4.55;;;18.40;94.60;;;;;;5037044;28;20045;-69
2022/12/09 11:42:33;;;;;;;34.57;4.90;;;18.40;95.00;;;;;;5037398;28;20044;-69
2022/12/09 11:45:39;;;;;;;21.45;4.78;;;18.40;95.20;;;;;;5036982;28;20053;-67
2022/12/09 11:49:15;;;;;;;33.97;5.70;;;18.40;95.10;;;;;;5036732;28;20049;-67
2022/12/09 11:52:29;;;;;;;35.15;4.95;;;18.40;95.10;;;;;;5036828;28;20048;-67
2022/12/09 11:55:36;;;;;;;29.83;4.57;;;18.40;94.10;;;;;;5036779;28;20519;-67
2022/12/09 11:59:16;;;;;;;23.42;4.75;;;18.40;94.40;;;;;;5037124;28;20064;-68
2022/12/09 12:02:41;;;;;;;27.65;5.05;;;18.40;94.40;;;;;;5031472;28;20044;-67
2022/12/09 12:05:49;;;;;;;30.08;4.40;;;18.40;93.70;;;;;;5036988;28;20052;-67
2022/12/09 12:09:03;;;;;;;27.50;4.55;;;18.50;93.90;;;;;;5047641;28;20068;-66
2022/12/09 12:12:26;;;;;;;26.55;4.63;;;18.60;93.60;;;;;;5033188;28;20040;-67
2022/12/09 12:15:41;;;;;;;24.35;4.05;;;18.70;93.90;;;;;;5033530;28;20192;-67
2022/12/09 12:19:08;;;;;;;21.95;4.68;;;18.70;93.80;;;;;;5033515;28;20397;-67
2022/12/09 12:22:49;;;;;;;36.95;4.82;;;18.80;93.40;;;;;;5033965;28;20384;-67
2022/12/09 12:26:25;;;;;;;29.80;4.10;;;18.90;93.10;;;;;;5033733;28;20547;-65
2022/12/09 12:29:52;;;;;;;32.30;5.05;;;18.90;93.00;;;;;;5033459;28;20044;-65
2022/12/09 12:33:11;;;;;;;38.13;5.82;;;18.80;93.40;;;;;;5033751;28;20091;-65
2022/12/09 12:36:19;;;;;;;29.45;5.30;;;18.90;93.20;;;;;;5033308;28;20056;-66
2022/12/09 12:39:32;;;;;;;24.27;4.95;;;18.80;93.10;;;;;;5033452;28;20049;-66
2022/12/09 12:42:39;;;;;;;29.38;6.00;;;18.80;93.20;;;;;;5033042;28;20044;-66
2022/12/09 12:46:17;;;;;;;22.15;5.95;;;18.80;92.50;;;;;;5033161;28;20044;-66
2022/12/09 12:49:36;;;;;;;21.80;4.43;;;18.80;92.70;;;;;;5032951;28;20044;-67
2022/12/09 12:53:05;;;;;;;18.63;4.03;;;18.80;92.90;;;;;;5033044;28;20049;-66
2022/12/09 12:56:22;;;;;;;36.80;5.03;;;18.70;92.80;;;;;;5033132;28;20052;-67
2022/12/09 12:59:42;;;;;;;24.55;4.47;;;18.70;93.00;;;;;;5032862;28;20396;-66
2022/12/09 13:03:15;;;;;;;28.50;4.72;;;18.70;92.80;;;;;;5033083;28;20056;-66
2022/12/09 13:06:28;;;;;;;24.77;4.82;;;18.60;92.50;;;;;;5038556;28;20052;-67
2022/12/09 13:09:42;;;;;;;34.47;4.65;;;18.60;92.60;;;;;;5033343;28;20049;-65
2022/12/09 13:12:55;;;;;;;27.02;5.18;;;18.60;92.70;;;;;;5032595;28;20072;-66
2022/12/09 13:16:13;;;;;;;35.70;4.97;;;18.60;92.90;;;;;;5032596;28;20045;-68
2022/12/09 13:19:36;;;;;;;39.78;5.47;;;18.60;92.50;;;;;;5032632;28;20048;-65
2022/12/09 13:23:18;;;;;;;29.80;5.13;;;18.60;92.60;;;;;;5031322;28;20048;-65
2022/12/09 13:26:40;;;;;;;30.95;4.40;;;18.50;92.80;;;;;;5032388;28;20036;-65
2022/12/09 13:29:58;;;;;;;29.70;4.50;;;18.50;93.10;;;;;;5032402;28;20040;-67
2022/12/09 13:33:33;;;;;;;35.88;5.53;;;18.50;92.90;;;;;;5032381;28;20048;-66
2022/12/09 13:36:41;;;;;;;40.20;6.03;;;18.50;93.00;;;;;;5032214;28;20056;-64
2022/12/09 13:39:48;;;;;;;46.72;5.20;;;18.50;93.20;;;;;;5032240;28;20531;-66
2022/12/09 13:43:01;;;;;;;35.45;4.90;;;18.50;93.40;;;;;;5032295;28;20519;-67
2022/12/09 13:46:05;;;;;;;26.13;5.80;;;18.50;93.40;;;;;;5031970;28;20504;-67
2022/12/09 13:49:17;;;;;;;24.95;3.72;;;18.60;93.60;;;;;;5031931;28;20048;-66
2022/12/09 13:52:49;;;;;;;20.58;3.15;;;18.50;91.90;;;;;;5031780;28;20040;-66
2022/12/09 13:56:01;;;;;;;27.50;3.63;;;18.70;92.00;;;;;;5031942;28;20052;-65
2022/12/09 13:59:48;;;;;;;28.33;3.47;;;18.80;92.00;;;;;;5031926;28;20060;-67
2022/12/09 14:03:18;;;;;;;23.85;3.50;;;18.90;91.70;;;;;;5042491;28;20049;-66
2022/12/09 14:06:45;;;;;;;26.83;3.40;;;19.00;91.10;;;;;;5031813;28;20053;-66
2022/12/09 14:09:54;;;;;;;26.65;3.60;;;19.00;91.10;;;;;;5031727;28;20053;-66
2022/12/09 14:12:58;;;;;;;20.42;3.10;;;19.00;91.00;;;;;;5031736;28;20041;-66
2022/12/09 14:16:16;;;;;;;32.63;4.78;;;19.00;90.80;;;;;;5031329;28;20464;-66
2022/12/09 14:19:23;;;;;;;33.38;5.32;;;19.10;91.40;;;;;;5031255;28;20045;-67
2022/12/09 14:22:31;;;;;;;27.98;5.60;;;19.00;92.10;;;;;;5031263;28;20048;-66
2022/12/09 14:25:35;;;;;;;32.45;4.05;;;18.90;92.30;;;;;;5031540;28;20045;-65
2022/12/09 14:28:51;;;;;;;38.15;5.47;;;18.90;91.40;;;;;;5031356;28;20056;-66
2022/12/09 14:31:55;;;;;;;32.03;4.68;;;18.90;91.90;;;;;;5031315;28;20052;-66
2022/12/09 14:35:11;;;;;;;26.63;4.90;;;18.80;91.90;;;;;;5031065;28;20048;-66
2022/12/09 14:38:56;;;;;;;30.00;4.78;;;18.80;92.30;;;;;;5030819;28;20057;-67
2022/12/09 14:42:20;;;;;;;27.25;3.88;;;18.70;92.30;;;;;;5031097;28;20045;-66
2022/12/09 14:45:35;;;;;;;22.35;3.38;;;18.70;91.90;;;;;;5030974;28;20048;-67
2022/12/09 14:48:40;;;;;;;21.70;4.28;;;18.80;91.80;;;;;;5030713;28;20044;-67
2022/12/09 14:51:54;;;;;;;21.50;3.60;;;18.80;91.90;;;;;;5030546;28;20052;-66
2022/12/09 14:55:03;;;;;;;23.67;3.17;;;18.80;92.00;;;;;;5030599;28;20044;-67
2022/12/09 14:58:19;;;;;;;17.98;3.08;;;18.80;92.10;;;;;;5030989;28;20385;-65
2022/12/09 15:01:23;;;;;;;22.20;3.30;;;18.80;92.30;;;;;;5030520;28;20040;-66
2022/12/09 15:04:34;;;;;;;23.42;3.38;;;18.80;92.40;;;;;;5030696;28;20052;-66
2022/12/09 15:07:43;;;;;;;28.10;3.63;;;18.90;92.70;;;;;;5030862;28;20148;-67
2022/12/09 15:10:48;;;;;;;20.65;3.38;;;18.80;92.60;;;;;;5030916;28;20359;-66
2022/12/09 15:14:25;;;;;;;23.58;3.67;;;18.80;92.20;;;;;;5031425;28;20048;-67
2022/12/09 15:17:30;;;;;;;26.58;4.15;;;18.80;92.50;;;;;;5030636;28;20044;-66
2022/12/09 15:20:38;;;;;;;28.20;3.90;;;18.90;92.70;;;;;;5030404;28;20048;-64
2022/12/09 15:23:44;;;;;;;27.02;4.05;;;18.80;92.80;;;;;;5030697;28;20052;-64
2022/12/09 15:27:02;;;;;;;25.85;3.35;;;18.80;92.90;;;;;;5030998;28;20495;-65
2022/12/09 15:30:23;;;;;;;26.08;3.78;;;18.80;92.50;;;;;;5030580;28;20156;-67
2022/12/09 15:33:30;;;;;;;22.88;4.75;;;18.80;93.00;;;;;;5030571;28;20048;-66
2022/12/09 15:36:48;;;;;;;22.25;3.72;;;18.80;93.50;;;;;;5030650;28;20064;-64
2022/12/09 15:40:08;;;;;;;21.17;3.58;;;18.70;93.30;;;;;;5030598;28;20393;-65
2022/12/09 15:43:13;;;;;;;22.70;2.95;;;18.70;93.40;;;;;;5029410;28;20045;-65
2022/12/09 15:46:18;;;;;;;28.70;3.72;;;18.70;93.70;;;;;;5030791;28;20040;-66
2022/12/09 15:49:33;;;;;;;23.50;4.35;;;18.70;94.10;;;;;;5032331;28;20044;-65
2022/12/09 15:53:05;;;;;;;29.42;4.38;;;18.60;94.00;;;;;;5032161;28;20064;-64
2022/12/09 15:56:21;;;;;;;15.98;4.65;;;18.60;94.40;;;;;;5033050;28;20053;-64
2022/12/09 15:59:31;;;;;;;16.33;3.45;;;18.60;95.10;;;;;;5033739;28;20465;-64
2022/12/09 16:02:38;;;;;;;22.92;3.10;;;18.60;95.60;;;;;;5033755;28;20302;-64
2022/12/09 16:05:52;;;;;;;21.48;4.60;;;18.50;95.90;;;;;;5032899;28;20404;-66
2022/12/09 16:08:57;;;;;;;25.73;4.00;;;18.40;96.60;;;;;;5033497;28;20071;-68
2022/12/09 16:12:01;;;;;;;19.60;3.95;;;18.40;96.70;;;;;;5033331;28;20052;-66
2022/12/09 16:15:08;;;;;;;19.08;4.00;;;18.40;97.00;;;;;;5033473;28;20044;-66
2022/12/09 16:18:17;;;;;;;23.15;5.10;;;18.30;97.60;;;;;;5033432;28;20401;-67